Time;durP1;ratioP1;P1;durP2;ratioP2;P2;SDS_P1;SDS_P2;PMS_P1;PMS_P2;Temp;Humidity;BMP_temperature;BMP_pressure;BME280_temperature;BME280_humidity;BME280_pressure;Samples;Min_cycle;Max_cycle;Signal;HPM_P1;HPM_P2
2023/04/12 00:01:34;;;;;;;3.30;2.07;;;11.60;57.20;;;;;;938855;149;27348;-74
2023/04/12 00:04:03;;;;;;;2.93;1.80;;;11.60;57.20;;;;;;938671;149;27345;-74
2023/04/12 00:06:31;;;;;;;3.43;2.00;;;11.60;57.20;;;;;;923403;153;27451;-74
2023/04/12 00:08:54;;;;;;;3.13;1.87;;;11.60;57.20;;;;;;937167;152;27291;-74
2023/04/12 00:11:21;;;;;;;4.47;2.10;;;11.60;57.20;;;;;;922823;154;27350;-74
2023/04/12 00:13:47;;;;;;;3.13;2.07;;;11.60;57.30;;;;;;926660;153;27404;-74
2023/04/12 00:16:14;;;;;;;3.17;1.90;;;11.60;57.40;;;;;;937696;152;27442;-74
2023/04/12 00:18:41;;;;;;;2.43;1.77;;;11.60;57.40;;;;;;938459;152;27368;-74
2023/04/12 00:21:09;;;;;;;3.93;1.90;;;11.60;57.50;;;;;;922141;152;27344;-74
2023/04/12 00:23:34;;;;;;;1.87;1.77;;;11.60;57.60;;;;;;923065;150;27577;-74
2023/04/12 00:26:00;;;;;;;3.97;2.10;;;11.60;57.60;;;;;;940957;149;27330;-74
2023/04/12 00:28:27;;;;;;;3.03;1.80;;;11.60;57.60;;;;;;943641;148;27360;-74
2023/04/12 00:30:53;;;;;;;3.27;2.10;;;11.60;57.70;;;;;;944010;148;27349;-74
2023/04/12 00:33:20;;;;;;;3.20;2.13;;;11.60;57.80;;;;;;927783;150;27349;-74
2023/04/12 00:35:46;;;;;;;3.27;2.20;;;11.60;57.80;;;;;;948408;147;27256;-74
2023/04/12 00:38:14;;;;;;;3.17;2.30;;;11.60;57.90;;;;;;932452;150;27385;-74
2023/04/12 00:40:42;;;;;;;3.73;1.77;;;11.60;58.00;;;;;;942178;149;27361;-74
2023/04/12 00:43:14;;;;;;;3.33;2.20;;;11.60;58.00;;;;;;942224;149;27296;-74
2023/04/12 00:45:36;;;;;;;2.60;2.07;;;11.60;58.10;;;;;;942916;148;27305;-74
2023/04/12 00:48:02;;;;;;;2.27;1.80;;;11.60;58.10;;;;;;943877;148;27343;-74
2023/04/12 00:50:29;;;;;;;4.27;2.33;;;11.60;58.20;;;;;;942991;148;27430;-74
2023/04/12 00:52:55;;;;;;;2.20;1.70;;;11.60;58.20;;;;;;942596;149;27277;-74
2023/04/12 00:55:22;;;;;;;2.57;2.07;;;11.70;58.30;;;;;;941258;149;28309;-74
2023/04/12 00:57:48;;;;;;;5.27;2.50;;;11.70;58.30;;;;;;942282;149;27460;-74
2023/04/12 01:00:16;;;;;;;2.63;2.00;;;11.70;58.40;;;;;;942030;149;27369;-74
2023/04/12 01:02:45;;;;;;;3.90;2.10;;;11.70;58.40;;;;;;940274;149;27337;-74
2023/04/12 01:05:13;;;;;;;5.27;1.97;;;11.70;58.40;;;;;;941252;149;27346;-74
2023/04/12 01:07:43;;;;;;;4.47;2.03;;;11.70;58.50;;;;;;943151;148;27386;-74
2023/04/12 01:10:22;;;;;;;3.63;2.03;;;11.70;58.60;;;;;;942802;148;27401;-74
2023/04/12 01:13:00;;;;;;;2.23;1.97;;;11.70;58.60;;;;;;944190;148;27492;-74
2023/04/12 01:15:27;;;;;;;5.03;2.00;;;11.70;58.70;;;;;;942741;147;27308;-74
2023/04/12 01:18:05;;;;;;;2.23;1.80;;;11.70;58.70;;;;;;944047;148;27360;-74
2023/04/12 01:20:32;;;;;;;3.97;2.10;;;11.70;59.00;;;;;;940341;149;27352;-74
2023/04/12 01:23:23;;;;;;;3.97;2.63;;;11.70;59.20;;;;;;941185;149;27337;-74
2023/04/12 01:26:10;;;;;;;3.57;2.30;;;11.70;59.30;;;;;;924819;153;27435;-74
2023/04/12 01:28:37;;;;;;;3.57;1.73;;;11.70;59.30;;;;;;929152;153;27859;-74
2023/04/12 01:31:05;;;;;;;4.87;1.97;;;11.70;58.70;;;;;;928516;151;27414;-74
2023/04/12 01:33:30;;;;;;;3.10;2.20;;;11.70;59.50;;;;;;943816;151;27336;-74
2023/04/12 01:36:00;;;;;;;3.63;2.00;;;11.60;59.60;;;;;;929997;153;27319;-74
2023/04/12 01:38:26;;;;;;;3.40;2.00;;;11.60;59.80;;;;;;928038;152;27390;-74
2023/04/12 01:40:53;;;;;;;5.27;2.40;;;11.60;59.90;;;;;;927244;152;27454;-74
2023/04/12 01:43:19;;;;;;;3.80;1.90;;;11.60;60.50;;;;;;928608;153;27477;-74
2023/04/12 01:45:46;;;;;;;2.67;1.80;;;11.60;60.30;;;;;;927439;152;27306;-74
2023/04/12 01:48:13;;;;;;;5.07;1.80;;;11.60;60.30;;;;;;940945;149;27289;-74
2023/04/12 01:50:42;;;;;;;1.93;1.60;;;11.60;60.40;;;;;;941329;151;27415;-74
2023/04/12 01:53:20;;;;;;;3.87;1.93;;;11.60;60.40;;;;;;940023;151;27358;-74
2023/04/12 01:55:47;;;;;;;3.37;2.10;;;11.60;60.50;;;;;;926768;153;27368;-74
2023/04/12 01:58:16;;;;;;;3.43;1.93;;;11.60;60.60;;;;;;933944;151;27769;-74
2023/04/12 02:00:43;;;;;;;4.43;2.10;;;11.60;60.80;;;;;;930684;151;27301;-74
2023/04/12 02:03:11;;;;;;;3.07;1.97;;;11.60;60.80;;;;;;944362;151;27376;-74
2023/04/12 02:05:36;;;;;;;3.93;2.27;;;11.60;61.00;;;;;;932851;151;27334;-74
2023/04/12 02:08:03;;;;;;;5.30;2.20;;;11.60;61.10;;;;;;942968;151;27305;-74
2023/04/12 02:10:29;;;;;;;2.20;2.00;;;11.50;61.00;;;;;;933532;151;27407;-74
2023/04/12 02:13:01;;;;;;;4.23;1.87;;;11.50;61.20;;;;;;935076;151;27454;-74
2023/04/12 02:15:28;;;;;;;2.50;2.00;;;11.50;61.40;;;;;;933828;151;27430;-74
2023/04/12 02:17:55;;;;;;;2.93;2.17;;;11.50;61.40;;;;;;944360;151;27333;-74
2023/04/12 02:20:21;;;;;;;4.97;2.20;;;11.50;62.40;;;;;;942585;149;27349;-74
2023/04/12 02:22:48;;;;;;;2.83;1.97;;;11.50;61.90;;;;;;941613;151;27345;-74
2023/04/12 02:25:16;;;;;;;4.00;2.00;;;11.50;62.00;;;;;;939278;149;27405;-74
2023/04/12 02:27:41;;;;;;;3.97;1.93;;;11.40;62.20;;;;;;942228;148;27370;-74
2023/04/12 02:30:08;;;;;;;3.73;1.80;;;11.40;62.40;;;;;;944627;148;27399;-74
2023/04/12 02:32:42;;;;;;;3.63;1.80;;;11.40;62.50;;;;;;944013;148;27321;-74
2023/04/12 02:35:01;;;;;;;4.13;1.50;;;11.40;62.60;;;;;;943380;148;27376;-75
2023/04/12 02:37:28;;;;;;;5.67;1.87;;;11.40;62.80;;;;;;941555;149;27817;-74
2023/04/12 02:39:56;;;;;;;1.63;1.43;;;11.40;63.00;;;;;;941813;149;27384;-74
2023/04/12 02:42:20;;;;;;;3.53;1.70;;;11.40;63.10;;;;;;942630;149;27406;-74
2023/04/12 02:44:47;;;;;;;4.23;1.70;;;11.40;63.20;;;;;;941341;149;27370;-74
2023/04/12 02:47:14;;;;;;;2.43;2.23;;;11.40;63.50;;;;;;941607;149;27446;-74
2023/04/12 02:49:40;;;;;;;2.70;1.50;;;11.40;63.60;;;;;;941301;149;27301;-74
2023/04/12 02:52:07;;;;;;;5.70;1.60;;;11.40;63.70;;;;;;943057;149;27426;-74
2023/04/12 02:54:33;;;;;;;2.33;1.50;;;11.40;63.80;;;;;;943973;148;27415;-74
2023/04/12 02:57:00;;;;;;;1.53;1.27;;;11.40;64.10;;;;;;943497;148;27361;-76
2023/04/12 02:59:27;;;;;;;1.57;1.40;;;11.40;65.00;;;;;;941955;149;27294;-77
2023/04/12 03:01:53;;;;;;;3.97;1.60;;;11.40;64.40;;;;;;941298;149;27329;-76
2023/04/12 03:04:21;;;;;;;4.17;1.83;;;11.40;64.60;;;;;;943192;148;27386;-76
2023/04/12 03:06:52;;;;;;;3.00;1.63;;;11.40;64.70;;;;;;941870;149;27439;-76
2023/04/12 03:09:19;;;;;;;3.40;1.67;;;11.40;65.00;;;;;;940874;149;27408;-77
2023/04/12 03:11:45;;;;;;;1.90;1.50;;;11.40;65.00;;;;;;940559;149;27782;-77
2023/04/12 03:14:12;;;;;;;2.87;1.60;;;11.40;65.30;;;;;;941951;149;27473;-77
2023/04/12 03:16:39;;;;;;;2.90;1.53;;;11.40;65.70;;;;;;941026;149;27338;-77
2023/04/12 03:19:05;;;;;;;1.67;1.30;;;11.40;65.80;;;;;;941962;149;27384;-77
2023/04/12 03:21:32;;;;;;;3.77;1.33;;;11.40;66.10;;;;;;941301;149;27424;-77
2023/04/12 03:23:58;;;;;;;2.93;1.63;;;11.40;66.30;;;;;;943426;148;27406;-77
2023/04/12 03:26:25;;;;;;;2.70;1.60;;;11.30;66.40;;;;;;943182;148;27375;-77
2023/04/12 03:29:00;;;;;;;2.03;1.47;;;11.30;66.30;;;;;;943791;148;27552;-77
2023/04/12 03:31:27;;;;;;;2.53;1.60;;;11.30;66.70;;;;;;935044;150;28296;-77
2023/04/12 03:33:54;;;;;;;3.90;1.67;;;11.30;66.70;;;;;;936984;150;27321;-77
2023/04/12 03:36:20;;;;;;;3.27;1.50;;;11.30;67.00;;;;;;937137;150;27346;-77
2023/04/12 03:38:48;;;;;;;3.10;1.60;;;11.30;67.20;;;;;;944590;151;27400;-77
2023/04/12 03:41:15;;;;;;;4.43;1.97;;;11.30;67.20;;;;;;926758;151;27408;-77
2023/04/12 03:43:41;;;;;;;2.80;1.23;;;11.30;67.20;;;;;;936298;148;27422;-77
2023/04/12 03:46:08;;;;;;;3.07;1.50;;;11.30;67.30;;;;;;935289;148;27348;-77
2023/04/12 03:48:35;;;;;;;3.70;1.77;;;11.30;67.50;;;;;;928273;150;27315;-77
2023/04/12 03:51:06;;;;;;;2.90;1.57;;;11.30;67.80;;;;;;928903;150;27412;-77
2023/04/12 03:53:30;;;;;;;2.70;1.20;;;11.20;67.80;;;;;;927693;150;27315;-77
2023/04/12 03:55:55;;;;;;;2.70;1.47;;;11.20;67.50;;;;;;927313;150;27795;-77
2023/04/12 03:58:21;;;;;;;2.63;1.63;;;11.20;67.80;;;;;;928314;150;27384;-76
2023/04/12 04:00:47;;;;;;;3.20;1.60;;;11.10;68.00;;;;;;928886;150;27315;-77
2023/04/12 04:03:14;;;;;;;2.97;1.50;;;11.10;68.10;;;;;;928256;150;27318;-77
2023/04/12 04:05:41;;;;;;;1.83;1.33;;;11.10;68.20;;;;;;928699;150;27363;-77
2023/04/12 04:08:07;;;;;;;3.90;1.70;;;11.00;68.50;;;;;;927232;150;27350;-77
2023/04/12 04:10:34;;;;;;;2.57;1.50;;;11.00;68.50;;;;;;928198;150;27322;-77
2023/04/12 04:13:00;;;;;;;2.70;1.53;;;11.00;68.60;;;;;;936574;148;27294;-77
2023/04/12 04:15:27;;;;;;;2.80;1.43;;;10.90;68.90;;;;;;935772;148;27278;-76
2023/04/12 04:17:53;;;;;;;2.03;1.50;;;10.90;69.10;;;;;;917874;151;27401;-77
2023/04/12 04:20:20;;;;;;;1.67;1.43;;;10.90;69.10;;;;;;919651;151;27335;-77
2023/04/12 04:22:47;;;;;;;2.40;1.60;;;10.80;69.20;;;;;;935218;148;27372;-77
2023/04/12 04:25:13;;;;;;;2.00;1.43;;;10.80;69.30;;;;;;935586;148;27385;-77
2023/04/12 04:27:45;;;;;;;4.17;1.70;;;10.80;69.60;;;;;;927745;149;27410;-77
2023/04/12 04:30:14;;;;;;;3.17;1.53;;;10.70;69.90;;;;;;923104;154;27440;-77
2023/04/12 04:32:39;;;;;;;2.30;1.67;;;10.70;70.00;;;;;;922675;152;27395;-77
2023/04/12 04:35:05;;;;;;;3.33;1.83;;;10.70;70.20;;;;;;937773;150;27243;-77
2023/04/12 04:37:34;;;;;;;3.43;1.47;;;10.70;70.20;;;;;;938791;152;27354;-77
2023/04/12 04:39:58;;;;;;;2.23;1.27;;;10.70;70.30;;;;;;923669;152;27375;-77
2023/04/12 04:42:25;;;;;;;3.20;1.53;;;10.60;70.60;;;;;;924453;153;27275;-77
2023/04/12 04:44:59;;;;;;;2.23;1.60;;;10.60;70.80;;;;;;916485;152;27382;-77
2023/04/12 04:47:18;;;;;;;2.50;1.57;;;10.60;70.70;;;;;;936192;149;27307;-78
2023/04/12 04:49:46;;;;;;;3.33;1.80;;;10.60;71.10;;;;;;938650;151;27396;-78
2023/04/12 04:52:12;;;;;;;1.87;1.67;;;10.60;71.00;;;;;;924760;154;27443;-78
2023/04/12 04:54:38;;;;;;;4.17;1.90;;;10.60;71.00;;;;;;926505;152;27287;-77
2023/04/12 04:57:06;;;;;;;2.50;1.53;;;10.60;71.30;;;;;;926364;152;27554;-77
2023/04/12 04:59:32;;;;;;;2.07;1.70;;;10.60;71.30;;;;;;926656;154;27306;-77
2023/04/12 05:01:58;;;;;;;7.40;2.30;;;10.60;71.70;;;;;;925991;154;27393;-78
2023/04/12 05:04:24;;;;;;;2.33;1.77;;;10.50;71.80;;;;;;933702;152;27498;-77
2023/04/12 05:06:52;;;;;;;5.10;1.90;;;10.50;71.70;;;;;;923971;154;27366;-77
2023/04/12 05:09:17;;;;;;;2.67;1.73;;;10.50;72.10;;;;;;928263;152;27433;-78
2023/04/12 05:11:45;;;;;;;3.63;1.80;;;10.50;72.10;;;;;;918069;152;27322;-78
2023/04/12 05:14:11;;;;;;;2.63;1.93;;;10.50;72.30;;;;;;924920;152;27366;-77
2023/04/12 05:16:37;;;;;;;3.03;1.80;;;10.50;72.50;;;;;;927851;154;27345;-77
2023/04/12 05:19:04;;;;;;;3.67;2.10;;;10.50;72.50;;;;;;941397;149;27298;-77
2023/04/12 05:21:31;;;;;;;2.40;1.90;;;10.50;72.50;;;;;;938362;149;27266;-78
2023/04/12 05:23:57;;;;;;;2.80;1.70;;;10.50;72.50;;;;;;938425;149;27353;-78
2023/04/12 05:26:24;;;;;;;3.73;1.70;;;10.50;72.50;;;;;;925807;154;27762;-78
2023/04/12 05:28:50;;;;;;;2.93;1.70;;;10.50;72.80;;;;;;934610;148;27418;-77
2023/04/12 05:31:17;;;;;;;2.63;1.90;;;10.50;73.10;;;;;;953825;147;27342;-78
2023/04/12 05:33:43;;;;;;;1.97;1.77;;;10.50;73.20;;;;;;916848;153;27341;-77
2023/04/12 05:36:10;;;;;;;2.20;1.90;;;10.50;73.70;;;;;;895083;153;27437;-78
2023/04/12 05:38:36;;;;;;;3.00;1.90;;;10.50;73.30;;;;;;911735;155;27342;-78
2023/04/12 05:41:04;;;;;;;2.63;1.80;;;10.50;73.40;;;;;;910421;155;27357;-77
2023/04/12 05:43:30;;;;;;;3.10;2.00;;;10.50;73.40;;;;;;908506;155;27399;-78
2023/04/12 05:45:56;;;;;;;2.90;1.80;;;10.50;73.90;;;;;;935660;149;27368;-78
2023/04/12 05:48:23;;;;;;;3.07;1.60;;;10.50;74.00;;;;;;931942;149;27416;-78
2023/04/12 05:50:52;;;;;;;3.87;1.67;;;10.50;74.30;;;;;;930676;149;27344;-78
2023/04/12 05:53:19;;;;;;;2.90;1.70;;;10.50;74.40;;;;;;931913;149;27282;-78
2023/04/12 05:55:47;;;;;;;2.60;1.70;;;10.50;74.60;;;;;;910495;153;27332;-78
2023/04/12 05:58:13;;;;;;;4.47;1.83;;;10.50;75.00;;;;;;911830;154;27371;-79
2023/04/12 06:00:44;;;;;;;2.50;1.60;;;10.50;75.40;;;;;;911014;155;28257;-79
2023/04/12 06:03:08;;;;;;;2.53;2.07;;;10.50;75.60;;;;;;907695;155;27515;-78
2023/04/12 06:05:33;;;;;;;3.40;1.63;;;10.50;76.00;;;;;;932019;149;27302;-78
2023/04/12 06:08:00;;;;;;;1.80;1.70;;;10.50;76.10;;;;;;910530;153;27314;-78
2023/04/12 06:10:26;;;;;;;1.70;1.60;;;10.50;76.30;;;;;;909701;154;27490;-78
2023/04/12 06:12:53;;;;;;;3.17;2.10;;;10.50;76.70;;;;;;913430;154;27397;-78
2023/04/12 06:15:19;;;;;;;2.03;1.83;;;10.50;77.60;;;;;;912110;154;27503;-79
2023/04/12 06:17:46;;;;;;;4.07;1.83;;;10.50;78.10;;;;;;912950;154;27330;-78
2023/04/12 06:20:13;;;;;;;2.00;1.80;;;10.50;78.50;;;;;;911198;154;27382;-78
2023/04/12 06:22:39;;;;;;;1.90;1.70;;;10.40;78.50;;;;;;910541;155;27495;-80
2023/04/12 06:25:06;;;;;;;2.30;1.47;;;10.50;79.00;;;;;;907221;157;27406;-80
2023/04/12 06:27:32;;;;;;;1.67;1.57;;;10.50;79.30;;;;;;939419;149;27349;-80
2023/04/12 06:29:59;;;;;;;2.53;1.77;;;10.50;79.70;;;;;;933193;149;27479;-80
2023/04/12 06:32:26;;;;;;;2.23;1.70;;;10.50;80.00;;;;;;931130;151;27406;-80
2023/04/12 06:34:52;;;;;;;1.87;1.70;;;10.50;80.50;;;;;;928328;152;27411;-80
2023/04/12 06:37:19;;;;;;;1.90;1.63;;;10.50;80.90;;;;;;937600;151;27355;-80
2023/04/12 06:39:45;;;;;;;2.57;1.87;;;10.50;81.40;;;;;;941134;151;27465;-80
2023/04/12 06:42:12;;;;;;;1.97;1.83;;;10.50;81.60;;;;;;941555;152;27383;-80
2023/04/12 06:44:39;;;;;;;2.13;1.60;;;10.50;81.80;;;;;;927779;151;27434;-80
2023/04/12 06:47:05;;;;;;;2.30;1.70;;;10.50;82.10;;;;;;943752;149;27353;-80
2023/04/12 06:49:32;;;;;;;1.90;1.70;;;10.50;82.40;;;;;;930186;153;27372;-80
2023/04/12 06:51:58;;;;;;;1.53;1.43;;;10.50;82.70;;;;;;941384;151;27379;-80
2023/04/12 06:54:25;;;;;;;1.70;1.60;;;10.50;83.10;;;;;;941690;151;27426;-80
2023/04/12 06:56:52;;;;;;;2.17;1.60;;;10.50;83.40;;;;;;940627;151;27318;-80
2023/04/12 06:59:18;;;;;;;2.40;1.60;;;10.50;83.80;;;;;;940515;152;27447;-80
2023/04/12 07:01:45;;;;;;;1.50;1.40;;;10.50;84.30;;;;;;930034;153;27355;-80
2023/04/12 07:04:11;;;;;;;1.87;1.70;;;10.50;84.60;;;;;;942304;151;27442;-80
2023/04/12 07:06:38;;;;;;;2.50;1.80;;;10.60;85.10;;;;;;940452;152;27406;-80
2023/04/12 07:09:04;;;;;;;2.17;1.50;;;10.60;85.50;;;;;;925481;153;27391;-79
2023/04/12 07:11:31;;;;;;;5.30;2.07;;;10.60;86.30;;;;;;923469;154;27472;-79
2023/04/12 07:14:00;;;;;;;1.77;1.57;;;10.60;86.70;;;;;;941753;151;27330;-79
2023/04/12 07:16:27;;;;;;;1.57;1.40;;;10.60;87.20;;;;;;944574;149;27287;-79
2023/04/12 07:18:54;;;;;;;1.97;1.60;;;10.70;87.00;;;;;;932709;152;27828;-80
2023/04/12 07:21:20;;;;;;;1.87;1.40;;;10.60;88.00;;;;;;928943;152;27362;-80
2023/04/12 07:23:49;;;;;;;1.50;1.40;;;10.70;88.50;;;;;;929068;151;27345;-79
2023/04/12 07:26:13;;;;;;;2.47;1.80;;;10.70;89.20;;;;;;938867;152;27306;-80
2023/04/12 07:28:40;;;;;;;2.07;1.90;;;10.70;89.50;;;;;;923860;154;27456;-79
2023/04/12 07:31:06;;;;;;;2.33;1.70;;;10.70;90.30;;;;;;932755;149;27482;-79
2023/04/12 07:33:34;;;;;;;1.77;1.67;;;10.70;90.20;;;;;;930029;149;27311;-80
2023/04/12 07:36:00;;;;;;;3.47;1.50;;;10.80;90.50;;;;;;936243;150;27344;-80
2023/04/12 07:38:26;;;;;;;2.47;1.50;;;10.80;90.80;;;;;;919582;151;27316;-79
2023/04/12 07:40:53;;;;;;;2.43;1.43;;;10.80;91.20;;;;;;920408;151;27452;-80
2023/04/12 07:43:20;;;;;;;1.23;1.13;;;10.90;91.50;;;;;;936412;148;27358;-80
2023/04/12 07:45:46;;;;;;;2.13;1.63;;;10.90;91.80;;;;;;935949;148;27366;-80
2023/04/12 07:48:13;;;;;;;2.17;1.37;;;10.90;91.90;;;;;;937443;148;27327;-80
2023/04/12 07:50:40;;;;;;;1.67;1.57;;;10.90;92.20;;;;;;942391;147;27287;-79
2023/04/12 07:53:21;;;;;;;1.30;1.17;;;10.90;92.50;;;;;;938454;147;27329;-80
2023/04/12 07:55:47;;;;;;;1.23;1.17;;;10.90;92.80;;;;;;940816;149;27349;-80
2023/04/12 07:58:14;;;;;;;2.03;1.47;;;10.90;93.10;;;;;;929049;150;27286;-80
2023/04/12 08:00:41;;;;;;;1.70;1.60;;;11.00;93.50;;;;;;928878;150;27298;-80
2023/04/12 08:03:07;;;;;;;2.97;1.30;;;11.00;93.90;;;;;;928755;150;27418;-80
2023/04/12 08:05:34;;;;;;;1.33;1.23;;;11.00;94.20;;;;;;929281;150;27442;-80
2023/04/12 08:08:00;;;;;;;1.23;1.13;;;11.00;94.70;;;;;;920665;150;27454;-80
2023/04/12 08:10:27;;;;;;;1.47;1.23;;;11.00;95.10;;;;;;936990;146;27362;-80
2023/04/12 08:12:54;;;;;;;1.13;1.10;;;11.10;95.60;;;;;;936843;148;27322;-79
2023/04/12 08:15:20;;;;;;;1.40;1.30;;;11.10;96.10;;;;;;937800;148;27350;-79
2023/04/12 08:17:47;;;;;;;1.60;1.50;;;11.10;96.60;;;;;;933910;149;27365;-79
2023/04/12 08:20:16;;;;;;;1.30;1.20;;;11.20;97.10;;;;;;931418;148;27322;-80
2023/04/12 08:22:40;;;;;;;1.53;1.13;;;11.20;97.60;;;;;;947075;147;27414;-79
2023/04/12 08:25:07;;;;;;;1.60;1.30;;;11.30;98.10;;;;;;952399;146;27276;-79
2023/04/12 08:27:33;;;;;;;1.30;1.07;;;11.40;98.50;;;;;;930652;149;27766;-80
2023/04/12 08:30:00;;;;;;;1.57;1.13;;;11.40;98.70;;;;;;933435;149;27350;-79
2023/04/12 08:32:26;;;;;;;1.30;1.20;;;11.40;98.80;;;;;;927611;153;27368;-80
2023/04/12 08:34:54;;;;;;;2.50;1.40;;;11.50;99.10;;;;;;931247;152;27379;-80
2023/04/12 08:37:20;;;;;;;1.90;1.10;;;11.50;99.40;;;;;;943563;148;27794;-79
2023/04/12 08:39:46;;;;;;;2.20;1.50;;;11.50;99.70;;;;;;920614;152;27391;-79
2023/04/12 08:42:13;;;;;;;2.20;1.20;;;11.50;99.90;;;;;;945129;151;27366;-80
2023/04/12 08:44:39;;;;;;;1.10;0.90;;;11.50;99.90;;;;;;943431;151;27469;-80
2023/04/12 08:47:06;;;;;;;1.30;1.20;;;11.60;99.90;;;;;;944083;149;27310;-80
2023/04/12 08:49:32;;;;;;;2.70;1.20;;;11.60;99.90;;;;;;943461;152;27441;-80
2023/04/12 08:52:07;;;;;;;1.10;1.00;;;11.60;99.90;;;;;;943908;152;27412;-80
2023/04/12 08:54:34;;;;;;;1.37;1.27;;;11.60;99.90;;;;;;942128;149;27332;-80
2023/04/12 08:57:01;;;;;;;1.37;1.00;;;11.60;99.90;;;;;;942004;151;27443;-79
2023/04/12 08:59:27;;;;;;;1.30;1.20;;;11.70;99.90;;;;;;939810;150;27293;-80
2023/04/12 09:01:54;;;;;;;1.10;1.10;;;11.70;99.90;;;;;;927645;151;27330;-80
2023/04/12 09:04:20;;;;;;;1.43;1.33;;;11.70;99.90;;;;;;928024;151;27306;-79
2023/04/12 09:06:47;;;;;;;1.40;1.30;;;11.80;99.90;;;;;;927911;152;27350;-80
2023/04/12 09:09:13;;;;;;;1.30;1.20;;;11.80;99.90;;;;;;924442;151;27520;-80
2023/04/12 09:11:40;;;;;;;1.37;1.20;;;11.90;99.90;;;;;;942417;151;27469;-76
2023/04/12 09:14:22;;;;;;;1.47;1.30;;;11.90;99.90;;;;;;941538;152;27326;-75
2023/04/12 09:16:49;;;;;;;1.07;1.07;;;11.90;99.90;;;;;;941907;151;27835;-75
2023/04/12 09:19:15;;;;;;;1.53;1.43;;;12.00;99.90;;;;;;929060;152;27322;-75
2023/04/12 09:21:51;;;;;;;1.97;1.60;;;12.00;99.90;;;;;;928696;152;27378;-75
2023/04/12 09:24:17;;;;;;;1.37;1.27;;;12.10;99.90;;;;;;923757;151;27491;-75
2023/04/12 09:26:44;;;;;;;1.83;1.30;;;12.10;99.90;;;;;;924101;154;27341;-75
2023/04/12 09:29:19;;;;;;;1.30;1.20;;;12.10;99.90;;;;;;929187;151;27363;-75
2023/04/12 09:31:46;;;;;;;1.63;1.37;;;12.20;99.90;;;;;;929502;149;27424;-75
2023/04/12 09:34:12;;;;;;;1.13;1.10;;;12.20;99.90;;;;;;930601;149;27306;-75
2023/04/12 09:36:39;;;;;;;1.37;1.27;;;12.30;99.90;;;;;;911112;153;27306;-75
2023/04/12 09:39:06;;;;;;;1.33;1.20;;;12.30;99.90;;;;;;908533;155;27414;-75
2023/04/12 09:41:32;;;;;;;1.30;1.20;;;12.40;99.90;;;;;;908842;155;27410;-75
2023/04/12 09:43:58;;;;;;;1.60;1.50;;;12.50;99.90;;;;;;931099;149;27298;-75
2023/04/12 09:46:25;;;;;;;2.20;1.50;;;12.50;99.90;;;;;;931119;149;27314;-75
2023/04/12 09:48:54;;;;;;;1.20;1.10;;;12.60;99.90;;;;;;932373;149;27434;-75
2023/04/12 09:51:31;;;;;;;1.77;1.67;;;12.70;99.90;;;;;;931873;149;27464;-75
2023/04/12 09:53:58;;;;;;;1.53;1.40;;;12.70;99.90;;;;;;930278;149;27898;-75
2023/04/12 09:56:23;;;;;;;2.13;1.27;;;12.70;99.90;;;;;;931063;149;27393;-74
2023/04/12 09:58:50;;;;;;;2.07;1.50;;;12.80;99.90;;;;;;930732;149;27910;-74
2023/04/12 10:01:16;;;;;;;1.40;1.30;;;12.80;99.90;;;;;;931914;149;27356;-75
2023/04/12 10:03:43;;;;;;;1.57;1.47;;;12.80;99.90;;;;;;910662;153;27477;-74
2023/04/12 10:06:09;;;;;;;1.97;1.20;;;12.90;99.90;;;;;;893933;155;27323;-75
2023/04/12 10:08:36;;;;;;;2.43;1.63;;;13.00;99.90;;;;;;913322;154;27433;-75
2023/04/12 10:11:03;;;;;;;1.60;1.50;;;13.00;99.90;;;;;;909810;153;27393;-75
2023/04/12 10:13:29;;;;;;;1.30;1.20;;;13.00;99.90;;;;;;911472;154;27398;-75
2023/04/12 10:15:55;;;;;;;1.40;1.30;;;13.10;99.90;;;;;;912572;153;27408;-75
2023/04/12 10:18:22;;;;;;;3.17;1.43;;;13.10;99.90;;;;;;907332;154;27493;-75
2023/04/12 10:20:49;;;;;;;1.20;1.20;;;13.20;99.90;;;;;;907670;154;27485;-75
2023/04/12 10:23:15;;;;;;;1.60;1.30;;;13.20;99.90;;;;;;907506;154;27492;-75
2023/04/12 10:25:43;;;;;;;1.40;1.30;;;13.30;99.90;;;;;;905538;154;27412;-75
2023/04/12 10:28:17;;;;;;;1.40;1.30;;;13.30;99.90;;;;;;895463;156;27493;-75
2023/04/12 10:30:44;;;;;;;1.93;1.77;;;13.30;99.90;;;;;;911492;153;27399;-75
2023/04/12 10:33:13;;;;;;;1.50;1.40;;;13.30;99.90;;;;;;933723;148;27529;-74
2023/04/12 10:35:51;;;;;;;1.93;1.40;;;13.30;99.90;;;;;;928134;149;27342;-75
2023/04/12 10:38:18;;;;;;;2.00;1.50;;;13.30;99.90;;;;;;927905;149;27427;-75
2023/04/12 10:41:09;;;;;;;1.73;1.50;;;13.30;99.90;;;;;;936885;148;27675;-75
2023/04/12 10:43:35;;;;;;;1.53;1.43;;;13.30;99.90;;;;;;921182;151;27558;-75
2023/04/12 10:46:05;;;;;;;1.97;1.50;;;13.30;99.90;;;;;;931451;148;27464;-74
2023/04/12 10:48:37;;;;;;;2.13;1.97;;;13.30;99.90;;;;;;937244;148;27271;-75
2023/04/12 10:51:24;;;;;;;2.30;2.10;;;13.40;99.90;;;;;;935898;148;27283;-74
2023/04/12 10:53:45;;;;;;;3.00;2.00;;;13.40;99.90;;;;;;937526;149;27465;-75
2023/04/12 10:56:30;;;;;;;2.10;1.90;;;13.40;99.90;;;;;;929210;149;27369;-75
2023/04/12 10:58:56;;;;;;;1.90;1.80;;;13.40;99.90;;;;;;909443;151;27801;-76
2023/04/12 11:01:23;;;;;;;3.07;2.50;;;13.50;99.90;;;;;;929401;149;27356;-75
2023/04/12 11:04:04;;;;;;;2.70;2.50;;;13.50;99.90;;;;;;928579;149;27377;-75
2023/04/12 11:06:40;;;;;;;11.17;9.27;;;13.60;99.90;;;;;;918937;149;27374;-75
2023/04/12 11:09:06;;;;;;;9.10;7.33;;;13.70;99.90;;;;;;928527;149;27390;-76
2023/04/12 11:11:36;;;;;;;4.80;4.07;;;13.70;99.90;;;;;;929499;149;27306;-75
2023/04/12 11:14:02;;;;;;;5.87;4.40;;;13.80;99.90;;;;;;929781;149;27459;-75
2023/04/12 11:16:29;;;;;;;2.85;2.55;;;13.90;99.90;;;;;;929367;149;27365;-75
2023/04/12 11:18:56;;;;;;;1.97;1.87;;;13.90;99.90;;;;;;928898;149;27423;-75
2023/04/12 11:21:22;;;;;;;1.85;1.60;;;14.00;99.90;;;;;;930123;149;27360;-75
2023/04/12 11:23:49;;;;;;;3.10;2.10;;;14.20;99.90;;;;;;929261;149;27286;-75
2023/04/12 11:26:19;;;;;;;1.83;1.60;;;14.30;99.90;;;;;;929595;149;27381;-75
2023/04/12 11:28:47;;;;;;;2.12;1.77;;;14.40;99.90;;;;;;929721;149;27278;-75
2023/04/12 11:31:13;;;;;;;1.90;1.70;;;14.50;99.90;;;;;;936576;148;27394;-75
2023/04/12 11:33:38;;;;;;;2.42;1.98;;;14.60;99.90;;;;;;925948;150;27459;-75
2023/04/12 11:36:13;;;;;;;3.50;1.95;;;14.70;99.90;;;;;;941268;149;27481;-75
2023/04/12 11:38:40;;;;;;;2.27;1.70;;;14.80;99.90;;;;;;939765;149;27385;-75
2023/04/12 11:41:07;;;;;;;4.40;2.00;;;14.90;99.90;;;;;;942033;149;27326;-75
2023/04/12 11:43:33;;;;;;;4.90;2.00;;;15.10;99.90;;;;;;941939;149;27288;-75
2023/04/12 11:46:00;;;;;;;2.15;1.47;;;15.10;99.90;;;;;;941929;149;27406;-75
2023/04/12 11:48:29;;;;;;;2.30;1.65;;;15.20;99.90;;;;;;941787;149;27699;-75
2023/04/12 11:50:58;;;;;;;2.45;1.60;;;15.20;99.90;;;;;;942524;148;27302;-75
2023/04/12 11:53:28;;;;;;;3.65;1.65;;;15.30;99.90;;;;;;943639;148;27794;-75
2023/04/12 11:55:54;;;;;;;2.67;1.60;;;15.30;99.90;;;;;;941203;149;27365;-75
2023/04/12 11:58:26;;;;;;;2.20;1.98;;;15.40;99.90;;;;;;940951;149;27277;-75
2023/04/12 12:00:52;;;;;;;1.85;1.50;;;15.40;99.90;;;;;;943119;148;27292;-75
2023/04/12 12:03:19;;;;;;;2.60;1.95;;;15.50;99.90;;;;;;932126;149;27444;-75
2023/04/12 12:05:45;;;;;;;1.57;1.47;;;15.60;99.90;;;;;;928193;150;27316;-75
2023/04/12 12:08:12;;;;;;;2.45;1.47;;;15.70;99.90;;;;;;927172;150;27395;-75
2023/04/12 12:10:39;;;;;;;2.70;1.75;;;15.80;99.90;;;;;;943515;148;27339;-75
2023/04/12 12:13:11;;;;;;;1.62;1.47;;;15.80;99.90;;;;;;943828;148;27329;-75
2023/04/12 12:15:38;;;;;;;2.08;1.90;;;15.90;99.90;;;;;;941374;149;27369;-75
2023/04/12 12:18:07;;;;;;;2.15;1.60;;;16.00;99.90;;;;;;941682;149;27301;-75
2023/04/12 12:20:49;;;;;;;3.05;1.80;;;16.10;99.90;;;;;;939509;149;27432;-75
2023/04/12 12:23:31;;;;;;;1.82;1.67;;;16.20;99.90;;;;;;938613;149;27349;-75
2023/04/12 12:25:57;;;;;;;1.62;1.50;;;16.30;99.90;;;;;;940762;149;27628;-75
2023/04/12 12:28:24;;;;;;;1.62;1.40;;;16.40;99.90;;;;;;939141;149;27494;-75
2023/04/12 12:30:56;;;;;;;3.67;1.52;;;16.60;99.90;;;;;;941187;149;27472;-75
2023/04/12 12:33:20;;;;;;;1.67;1.40;;;16.80;99.90;;;;;;938121;149;27385;-75
2023/04/12 12:35:47;;;;;;;2.00;1.35;;;17.00;99.90;;;;;;932331;149;27308;-75
2023/04/12 12:38:13;;;;;;;1.42;1.30;;;17.20;99.90;;;;;;910584;153;27483;-75
2023/04/12 12:40:40;;;;;;;1.05;0.95;;;17.40;99.90;;;;;;889686;154;27371;-75
2023/04/12 12:43:07;;;;;;;1.85;1.07;;;17.50;99.90;;;;;;904118;155;27351;-75
2023/04/12 12:45:34;;;;;;;1.47;1.12;;;17.60;99.90;;;;;;928931;149;27283;-75
2023/04/12 12:48:01;;;;;;;1.77;1.62;;;17.70;99.90;;;;;;911305;153;27474;-75
2023/04/12 12:50:26;;;;;;;1.80;1.40;;;17.80;99.90;;;;;;910666;153;27491;-75